Time;durP1;ratioP1;P1;durP2;ratioP2;P2;SDS_P1;SDS_P2;PMS_P1;PMS_P2;Temp;Humidity;BMP_temperature;BMP_pressure;BME280_temperature;BME280_humidity;BME280_pressure;Samples;Min_cycle;Max_cycle;Signal;HPM_P1;HPM_P2
2024/02/11 00:00:27;;;;;;;6.40;4.73;;;10.80;99.90;;;;;;4984112;28;20231;-92
2024/02/11 00:02:55;;;;;;;5.47;5.00;;;10.70;99.90;;;;;;4983231;28;20216;-91
2024/02/11 00:05:21;;;;;;;6.20;4.90;;;10.60;99.90;;;;;;4967970;28;20192;-91
2024/02/11 00:07:48;;;;;;;6.33;5.73;;;10.60;99.90;;;;;;4967148;28;20223;-91
2024/02/11 00:10:14;;;;;;;6.87;3.07;;;10.70;99.90;;;;;;4967335;28;20286;-91
2024/02/11 00:12:40;;;;;;;9.60;6.87;;;10.80;99.90;;;;;;4983179;28;20220;-91
2024/02/11 00:15:08;;;;;;;8.20;5.30;;;10.70;99.90;;;;;;4967247;28;20230;-91
2024/02/11 00:17:34;;;;;;;7.93;4.67;;;10.80;99.90;;;;;;4967683;28;20200;-91
2024/02/11 00:20:02;;;;;;;6.27;4.17;;;10.70;99.90;;;;;;4967607;28;20286;-91
2024/02/11 00:22:28;;;;;;;8.53;5.47;;;10.80;99.90;;;;;;4984128;28;20274;-90
2024/02/11 00:24:54;;;;;;;8.13;7.20;;;10.60;99.90;;;;;;4966406;28;20250;-91
2024/02/11 00:27:22;;;;;;;4.87;3.10;;;10.80;99.90;;;;;;4983480;28;20220;-91
2024/02/11 00:29:49;;;;;;;9.43;5.53;;;10.70;99.90;;;;;;4983394;28;20238;-91
2024/02/11 00:32:15;;;;;;;8.20;5.57;;;10.80;99.90;;;;;;4966568;28;20192;-91
2024/02/11 00:34:41;;;;;;;4.33;2.63;;;10.80;99.90;;;;;;4966353;28;20339;-91
2024/02/11 00:37:10;;;;;;;6.67;5.13;;;10.80;99.90;;;;;;4966554;28;20220;-91
2024/02/11 00:39:37;;;;;;;10.70;5.37;;;10.70;99.90;;;;;;4967023;28;20246;-90
2024/02/11 00:42:03;;;;;;;5.77;4.97;;;10.70;99.90;;;;;;4983023;28;20232;-90
2024/02/11 00:44:31;;;;;;;5.43;3.83;;;10.60;99.90;;;;;;4982747;28;20196;-91
2024/02/11 00:46:57;;;;;;;6.63;5.37;;;10.50;99.90;;;;;;4983735;28;20195;-91
2024/02/11 00:49:23;;;;;;;10.37;4.67;;;10.50;99.90;;;;;;4983390;28;20227;-90
2024/02/11 00:51:48;;;;;;;8.63;5.07;;;10.50;99.90;;;;;;4966652;28;20238;-91
2024/02/11 00:54:14;;;;;;;15.17;6.10;;;10.70;99.90;;;;;;4966384;28;20220;-91
2024/02/11 00:56:43;;;;;;;6.47;4.60;;;10.50;99.90;;;;;;4982866;28;20789;-91
2024/02/11 00:59:10;;;;;;;5.43;3.67;;;10.70;99.90;;;;;;4967529;28;20196;-90
2024/02/11 01:01:39;;;;;;;5.23;4.73;;;10.50;99.90;;;;;;4981610;28;20222;-92
2024/02/11 01:04:05;;;;;;;9.70;5.17;;;10.50;99.90;;;;;;4966943;28;20367;-91
2024/02/11 01:06:31;;;;;;;3.57;3.23;;;10.70;99.90;;;;;;4982150;28;20235;-92
2024/02/11 01:08:57;;;;;;;4.53;4.07;;;10.60;99.90;;;;;;4966298;28;20601;-93
2024/02/11 01:11:23;;;;;;;8.07;6.27;;;10.70;99.90;;;;;;4982219;28;20203;-91
2024/02/11 01:13:49;;;;;;;9.30;4.03;;;10.40;99.90;;;;;;4983462;28;20192;-92
2024/02/11 01:16:15;;;;;;;7.53;4.70;;;10.40;99.90;;;;;;4997343;28;21180;-92
2024/02/11 01:18:43;;;;;;;6.50;4.70;;;10.40;99.90;;;;;;4982199;28;20234;-92
2024/02/11 01:21:10;;;;;;;6.63;5.67;;;10.40;99.90;;;;;;4967031;28;20228;-93
2024/02/11 01:23:36;;;;;;;5.50;3.93;;;10.40;99.90;;;;;;4965754;28;20196;-92
2024/02/11 01:26:02;;;;;;;4.23;3.50;;;10.40;99.90;;;;;;4965747;28;20184;-92
2024/02/11 01:28:30;;;;;;;4.17;3.33;;;10.30;99.90;;;;;;4965550;28;20216;-92
2024/02/11 01:30:59;;;;;;;6.20;5.60;;;10.30;99.90;;;;;;4981773;28;20224;-93
2024/02/11 01:33:25;;;;;;;7.33;4.70;;;10.40;99.90;;;;;;4965856;28;20267;-92
2024/02/11 01:35:51;;;;;;;5.83;5.27;;;10.50;99.90;;;;;;4965032;28;20298;-92
2024/02/11 01:38:17;;;;;;;6.63;5.37;;;10.30;99.90;;;;;;4966978;28;20192;-91
2024/02/11 01:40:43;;;;;;;6.37;4.60;;;10.30;99.90;;;;;;4966129;28;20211;-92
2024/02/11 01:43:09;;;;;;;6.53;4.13;;;10.50;99.90;;;;;;4981119;28;20816;-92
2024/02/11 01:45:36;;;;;;;6.60;5.23;;;10.30;99.90;;;;;;4981630;28;20227;-92
2024/02/11 01:48:04;;;;;;;2.60;2.07;;;10.40;99.90;;;;;;4964912;28;20227;-92
2024/02/11 01:50:35;;;;;;;25.27;4.37;;;10.20;99.90;;;;;;4965171;28;20211;-90
2024/02/11 01:53:02;;;;;;;3.77;2.77;;;10.50;99.90;;;;;;4974173;28;20226;-92
2024/02/11 01:55:30;;;;;;;4.33;3.93;;;10.50;99.90;;;;;;4981725;28;20698;-91
2024/02/11 01:57:56;;;;;;;2.77;2.30;;;10.20;99.90;;;;;;4981987;28;20216;-90
2024/02/11 02:00:23;;;;;;;5.00;3.77;;;10.40;99.90;;;;;;4981216;28;20270;-91
2024/02/11 02:02:54;;;;;;;3.70;3.40;;;10.20;99.90;;;;;;4981297;28;20707;-91
2024/02/11 02:05:20;;;;;;;6.47;5.23;;;10.20;99.90;;;;;;4998856;28;20211;-90
2024/02/11 02:07:46;;;;;;;4.57;3.17;;;10.20;99.90;;;;;;4981637;28;20215;-90
2024/02/11 02:10:12;;;;;;;3.67;3.30;;;10.50;99.90;;;;;;4964798;28;20240;-91
2024/02/11 02:12:39;;;;;;;5.97;3.00;;;10.30;99.90;;;;;;4981254;28;20219;-90
2024/02/11 02:15:08;;;;;;;9.97;3.77;;;10.20;99.90;;;;;;4982057;28;20596;-90
2024/02/11 02:17:35;;;;;;;6.27;2.10;;;10.50;99.90;;;;;;4980794;28;20188;-93
2024/02/11 02:20:03;;;;;;;4.67;3.93;;;10.40;99.90;;;;;;4966004;28;20231;-92
2024/02/11 02:22:29;;;;;;;3.40;2.70;;;10.40;99.90;;;;;;4981285;28;20324;-92
2024/02/11 02:24:55;;;;;;;5.93;3.97;;;10.20;99.90;;;;;;4981574;28;20263;-90
2024/02/11 02:27:22;;;;;;;4.67;2.90;;;10.30;99.90;;;;;;4964793;28;20710;-91
2024/02/11 02:29:48;;;;;;;5.60;4.43;;;10.30;99.90;;;;;;4981409;28;20231;-90
2024/02/11 02:32:14;;;;;;;5.13;2.23;;;10.40;99.90;;;;;;4982704;28;20255;-91
2024/02/11 02:34:40;;;;;;;5.40;3.43;;;10.30;99.90;;;;;;4982238;28;20243;-90
2024/02/11 02:37:06;;;;;;;3.30;3.03;;;10.30;99.90;;;;;;4964220;28;20590;-92
2024/02/11 02:39:32;;;;;;;3.40;3.13;;;10.30;99.90;;;;;;4964897;28;20220;-91
2024/02/11 02:41:59;;;;;;;3.17;2.53;;;10.40;99.90;;;;;;4979991;28;20262;-90
2024/02/11 02:44:24;;;;;;;10.17;4.60;;;10.40;99.90;;;;;;4964811;28;20213;-90
2024/02/11 02:46:52;;;;;;;6.43;4.33;;;10.30;99.90;;;;;;4981582;28;20639;-90
2024/02/11 02:49:18;;;;;;;3.07;2.67;;;10.40;99.90;;;;;;4964890;28;20701;-90
2024/02/11 02:51:44;;;;;;;3.47;3.10;;;10.20;99.90;;;;;;4964224;28;20235;-90
2024/02/11 02:54:12;;;;;;;2.87;2.67;;;10.40;99.90;;;;;;4964566;28;20216;-89
2024/02/11 02:56:38;;;;;;;4.70;3.00;;;10.20;99.90;;;;;;4951997;28;20199;-90
2024/02/11 02:59:08;;;;;;;4.23;3.90;;;10.40;99.90;;;;;;4984969;28;20200;-90
2024/02/11 03:01:41;;;;;;;2.27;1.67;;;10.40;99.90;;;;;;4969235;28;20218;-90
2024/02/11 03:04:08;;;;;;;4.87;4.00;;;10.10;99.90;;;;;;5000555;28;20224;-90
2024/02/11 03:06:34;;;;;;;8.00;5.27;;;10.40;99.90;;;;;;4968284;28;20725;-89
2024/02/11 03:09:04;;;;;;;7.30;3.23;;;10.10;99.90;;;;;;4985115;28;20270;-90
2024/02/11 03:11:30;;;;;;;6.00;5.40;;;10.40;99.90;;;;;;4984158;28;20279;-90
2024/02/11 03:13:56;;;;;;;6.57;4.57;;;10.30;99.90;;;;;;4984696;28;20209;-90
2024/02/11 03:16:21;;;;;;;11.23;6.27;;;10.10;99.90;;;;;;4959653;28;20227;-91
2024/02/11 03:18:48;;;;;;;8.33;4.43;;;10.00;99.90;;;;;;4984378;28;20223;-93
2024/02/11 03:21:17;;;;;;;10.00;3.90;;;10.00;99.90;;;;;;4983500;28;20232;-90
2024/02/11 03:23:43;;;;;;;5.13;3.17;;;9.90;99.90;;;;;;4968509;28;20235;-91
2024/02/11 03:26:10;;;;;;;3.30;2.70;;;10.10;99.90;;;;;;4985093;28;20188;-91
2024/02/11 03:28:37;;;;;;;5.77;4.13;;;10.00;99.90;;;;;;4968109;28;20227;-90
2024/02/11 03:31:07;;;;;;;7.80;3.60;;;9.80;99.90;;;;;;4951876;28;20647;-90
2024/02/11 03:33:34;;;;;;;6.40;4.17;;;9.80;99.90;;;;;;4968633;28;20220;-90
2024/02/11 03:36:00;;;;;;;3.50;2.67;;;9.90;99.90;;;;;;4984928;28;20282;-90
2024/02/11 03:38:26;;;;;;;3.90;2.70;;;9.70;99.90;;;;;;4968516;28;20282;-90
2024/02/11 03:40:56;;;;;;;4.63;3.60;;;9.90;99.90;;;;;;4984801;28;20287;-90
2024/02/11 03:43:22;;;;;;;4.33;3.97;;;9.60;99.90;;;;;;4982862;28;20242;-92
2024/02/11 03:45:49;;;;;;;5.90;3.63;;;9.60;99.90;;;;;;4984067;28;20219;-90
2024/02/11 03:48:16;;;;;;;5.43;2.13;;;9.70;99.90;;;;;;4967444;28;20339;-90
2024/02/11 03:50:42;;;;;;;4.80;2.07;;;9.70;99.90;;;;;;4982945;28;20212;-91
2024/02/11 03:53:09;;;;;;;7.47;3.57;;;9.60;99.90;;;;;;4983975;28;20180;-90
2024/02/11 03:55:35;;;;;;;5.70;2.97;;;9.60;99.90;;;;;;4968063;28;20222;-90
2024/02/11 03:58:04;;;;;;;3.93;2.20;;;9.60;99.90;;;;;;4967079;28;20216;-89
2024/02/11 04:00:31;;;;;;;5.10;2.90;;;9.60;99.90;;;;;;4983254;28;20223;-92
2024/02/11 04:02:58;;;;;;;3.03;2.43;;;9.40;99.90;;;;;;4983553;28;20235;-92
2024/02/11 04:05:26;;;;;;;5.00;2.80;;;9.40;99.90;;;;;;4983845;28;20192;-90
2024/02/11 04:07:53;;;;;;;2.97;2.67;;;9.50;99.90;;;;;;4968201;28;20395;-90
2024/02/11 04:10:19;;;;;;;4.70;2.97;;;9.70;99.90;;;;;;4983657;28;20242;-90
2024/02/11 04:12:46;;;;;;;4.63;2.10;;;9.60;99.90;;;;;;4965968;28;20625;-92
2024/02/11 04:15:16;;;;;;;3.33;2.33;;;9.70;99.90;;;;;;4984776;28;20796;-91
2024/02/11 04:17:42;;;;;;;3.77;3.43;;;9.70;99.90;;;;;;4983363;28;20223;-90
2024/02/11 04:20:15;;;;;;;2.40;2.20;;;9.70;99.90;;;;;;4983234;28;20721;-93
2024/02/11 04:22:45;;;;;;;7.00;2.63;;;9.30;99.90;;;;;;4973456;28;20216;-92
2024/02/11 04:25:14;;;;;;;1.33;1.23;;;9.60;99.90;;;;;;4983593;28;20224;-92
2024/02/11 04:27:42;;;;;;;3.67;2.93;;;9.50;99.90;;;;;;4982704;28;20928;-92
2024/02/11 04:30:12;;;;;;;5.03;2.60;;;9.60;99.90;;;;;;4951905;28;20242;-91
2024/02/11 04:32:48;;;;;;;3.40;2.87;;;9.40;99.90;;;;;;4984553;28;20456;-92
2024/02/11 04:35:15;;;;;;;5.63;4.03;;;9.30;99.90;;;;;;4983392;28;20676;-91
2024/02/11 04:37:49;;;;;;;2.80;2.10;;;9.20;99.90;;;;;;4982581;28;20267;-91
2024/02/11 04:40:18;;;;;;;1.90;1.70;;;9.30;99.90;;;;;;4982975;28;20243;-92
2024/02/11 04:42:45;;;;;;;1.70;1.60;;;9.50;99.90;;;;;;4983260;28;20696;-91
2024/02/11 04:45:18;;;;;;;1.77;1.70;;;9.20;99.90;;;;;;4982090;28;20308;-92
2024/02/11 04:47:54;;;;;;;1.10;1.10;;;9.20;99.90;;;;;;4982895;28;20230;-92
2024/02/11 04:50:21;;;;;;;4.60;1.73;;;9.40;99.90;;;;;;4982890;28;20645;-92
2024/02/11 04:53:01;;;;;;;2.70;2.33;;;9.50;99.90;;;;;;4982793;28;20224;-92
2024/02/11 04:55:43;;;;;;;3.17;2.67;;;9.10;99.90;;;;;;4983897;28;20239;-92
2024/02/11 04:58:18;;;;;;;2.43;2.23;;;9.50;99.90;;;;;;4981935;28;20337;-94
2024/02/11 05:00:50;;;;;;;3.33;2.93;;;9.60;99.90;;;;;;4983127;28;20223;-91
2024/02/11 05:03:19;;;;;;;2.50;2.33;;;9.40;99.90;;;;;;4983435;28;20662;-92
2024/02/11 05:05:47;;;;;;;2.10;2.00;;;9.40;99.90;;;;;;4966875;28;20223;-91
2024/02/11 05:08:16;;;;;;;3.33;3.00;;;9.10;99.90;;;;;;4983978;28;20187;-92
2024/02/11 05:10:44;;;;;;;1.20;1.10;;;9.40;99.90;;;;;;4966752;28;20227;-92
2024/02/11 05:13:12;;;;;;;1.63;1.63;;;9.20;99.90;;;;;;4982056;28;20219;-92
2024/02/11 05:15:40;;;;;;;3.67;2.80;;;9.10;99.90;;;;;;4981459;28;20212;-90
2024/02/11 05:18:09;;;;;;;2.57;2.43;;;9.50;99.90;;;;;;4981552;28;20681;-91
2024/02/11 05:20:36;;;;;;;3.27;2.97;;;9.10;99.90;;;;;;4980644;28;20231;-91
2024/02/11 05:23:05;;;;;;;4.77;1.93;;;9.20;99.90;;;;;;4982098;28;20286;-91
2024/02/11 05:25:31;;;;;;;2.87;2.57;;;9.40;99.90;;;;;;4981217;28;20220;-92
2024/02/11 05:28:04;;;;;;;5.70;2.23;;;9.20;99.90;;;;;;4965187;28;20663;-91
2024/02/11 05:30:34;;;;;;;2.77;1.40;;;9.10;99.90;;;;;;4981716;28;20243;-91
2024/02/11 05:33:02;;;;;;;6.00;2.60;;;9.40;99.90;;;;;;4965766;28;20247;-91
2024/02/11 05:35:28;;;;;;;2.63;2.33;;;9.10;99.90;;;;;;4981927;28;20200;-92
2024/02/11 05:37:57;;;;;;;3.33;2.47;;;9.40;99.90;;;;;;4966680;28;20282;-91
2024/02/11 05:40:27;;;;;;;3.83;2.70;;;9.10;99.90;;;;;;4981843;28;20231;-91
2024/02/11 05:42:53;;;;;;;1.87;1.77;;;9.40;99.90;;;;;;4981124;28;20311;-92
2024/02/11 05:45:22;;;;;;;2.00;1.53;;;9.10;99.90;;;;;;4982223;28;20216;-91
2024/02/11 05:47:49;;;;;;;3.20;3.03;;;9.10;99.90;;;;;;4981250;28;20215;-91
2024/02/11 05:50:16;;;;;;;2.17;1.27;;;9.40;99.90;;;;;;4981637;28;20216;-91
2024/02/11 05:52:43;;;;;;;4.43;3.13;;;9.10;99.90;;;;;;4964866;28;20740;-91
2024/02/11 05:55:11;;;;;;;1.80;1.70;;;9.40;99.90;;;;;;4982451;28;20230;-90
2024/02/11 05:57:40;;;;;;;3.13;2.47;;;9.20;99.90;;;;;;4980658;28;20219;-90
2024/02/11 06:00:14;;;;;;;4.17;2.27;;;9.20;99.90;;;;;;4966014;28;20277;-91
2024/02/11 06:02:47;;;;;;;3.80;2.77;;;9.10;99.90;;;;;;4981315;28;20188;-91
2024/02/11 06:05:13;;;;;;;2.13;2.00;;;9.20;99.90;;;;;;4982062;28;20553;-91
2024/02/11 06:07:49;;;;;;;3.43;2.07;;;9.40;99.90;;;;;;4981783;28;20323;-92
2024/02/11 06:10:16;;;;;;;1.63;1.53;;;9.00;99.90;;;;;;4982111;28;20259;-92
2024/02/11 06:12:43;;;;;;;2.27;2.00;;;9.10;99.90;;;;;;4964436;28;20372;-92
2024/02/11 06:15:11;;;;;;;7.50;2.30;;;9.30;99.90;;;;;;4979525;28;20220;-91
2024/02/11 06:17:41;;;;;;;2.53;2.33;;;9.10;99.90;;;;;;4980951;28;20196;-91
2024/02/11 06:20:18;;;;;;;3.97;1.93;;;9.30;99.90;;;;;;4981610;28;20669;-91
2024/02/11 06:22:54;;;;;;;1.67;1.67;;;9.30;99.90;;;;;;4965321;28;20596;-91
2024/02/11 06:25:22;;;;;;;2.23;1.40;;;9.00;99.90;;;;;;4996399;28;20219;-91
2024/02/11 06:27:49;;;;;;;2.50;1.90;;;9.00;99.90;;;;;;4961120;28;20220;-91
2024/02/11 06:30:17;;;;;;;4.00;2.90;;;9.00;99.90;;;;;;4981831;28;20763;-91
2024/02/11 06:32:47;;;;;;;2.57;1.67;;;9.30;99.90;;;;;;5001388;28;20192;-92
2024/02/11 06:35:14;;;;;;;2.63;1.93;;;9.10;99.90;;;;;;4985515;28;20477;-91
2024/02/11 06:37:41;;;;;;;3.70;2.67;;;9.00;99.90;;;;;;4953531;28;20214;-91
2024/02/11 06:40:18;;;;;;;2.07;1.97;;;9.30;99.90;;;;;;4983277;28;20219;-91
2024/02/11 06:42:47;;;;;;;4.20;1.73;;;9.30;99.90;;;;;;4961440;28;20641;-90
2024/02/11 06:45:13;;;;;;;2.23;1.97;;;9.30;99.90;;;;;;4985087;28;20310;-91
2024/02/11 06:47:40;;;;;;;7.13;4.93;;;9.00;99.90;;;;;;4984579;28;20287;-91
2024/02/11 06:50:18;;;;;;;2.50;2.20;;;9.00;99.90;;;;;;4984049;28;20235;-91
2024/02/11 06:52:47;;;;;;;2.10;1.30;;;9.30;99.90;;;;;;4986524;28;20226;-92
2024/02/11 06:55:15;;;;;;;2.53;1.70;;;9.30;99.90;;;;;;4969440;28;20339;-90
2024/02/11 06:57:42;;;;;;;1.93;1.77;;;9.20;99.90;;;;;;4968362;28;20215;-90
2024/02/11 07:00:09;;;;;;;3.20;2.13;;;9.00;99.90;;;;;;4968509;28;20231;-91
2024/02/11 07:02:36;;;;;;;1.37;0.93;;;9.30;99.90;;;;;;4983686;28;20207;-90
2024/02/11 07:05:05;;;;;;;3.17;2.87;;;9.30;99.90;;;;;;4968455;28;20221;-91
2024/02/11 07:07:33;;;;;;;5.87;4.00;;;9.20;99.90;;;;;;4968270;28;20748;-90
2024/02/11 07:09:59;;;;;;;2.93;2.83;;;9.00;99.90;;;;;;4984026;28;20305;-91
2024/02/11 07:12:25;;;;;;;3.60;3.23;;;9.30;99.90;;;;;;4985595;28;20223;-90
2024/02/11 07:14:51;;;;;;;7.47;4.37;;;9.10;99.90;;;;;;4967633;28;20215;-91
2024/02/11 07:17:19;;;;;;;1.37;1.27;;;9.10;99.90;;;;;;4984219;28;20188;-91
2024/02/11 07:19:48;;;;;;;1.47;0.93;;;9.00;99.90;;;;;;4968548;28;20241;-92
2024/02/11 07:22:14;;;;;;;4.13;2.73;;;9.20;99.90;;;;;;4967436;28;20682;-91
2024/02/11 07:24:41;;;;;;;3.23;2.07;;;9.00;99.90;;;;;;4967875;28;20224;-91
2024/02/11 07:27:09;;;;;;;3.20;2.87;;;9.20;99.90;;;;;;4984144;28;20220;-90
2024/02/11 07:29:35;;;;;;;2.43;2.23;;;9.10;99.90;;;;;;4983237;28;20611;-91
2024/02/11 07:32:02;;;;;;;7.43;4.17;;;9.20;99.90;;;;;;4983068;28;20188;-91
2024/02/11 07:34:29;;;;;;;2.63;2.33;;;9.20;99.90;;;;;;4967758;28;20224;-91
2024/02/11 07:36:58;;;;;;;2.43;2.23;;;9.20;99.90;;;;;;4984129;28;20216;-92
2024/02/11 07:39:24;;;;;;;2.43;2.33;;;9.20;99.90;;;;;;4968218;28;20479;-92
2024/02/11 07:41:49;;;;;;;1.67;1.57;;;9.00;99.90;;;;;;4969241;28;20287;-91
2024/02/11 07:44:15;;;;;;;4.50;1.93;;;8.90;99.90;;;;;;4968299;28;20192;-92
2024/02/11 07:46:42;;;;;;;2.53;2.10;;;9.00;99.90;;;;;;4968811;28;20244;-91
2024/02/11 07:49:10;;;;;;;3.20;2.13;;;9.00;99.90;;;;;;4988402;28;20236;-90
2024/02/11 07:51:37;;;;;;;4.03;3.57;;;9.00;99.90;;;;;;5005265;28;20224;-91
2024/02/11 07:54:03;;;;;;;5.57;3.37;;;8.90;99.90;;;;;;4975330;28;20343;-91
2024/02/11 07:56:29;;;;;;;2.23;2.13;;;8.90;99.90;;;;;;4966877;28;20654;-91
2024/02/11 07:58:55;;;;;;;1.97;1.90;;;8.90;99.90;;;;;;4985454;28;20562;-91
2024/02/11 08:01:21;;;;;;;8.17;7.43;;;8.80;99.90;;;;;;4967155;28;20211;-91
2024/02/11 08:03:47;;;;;;;1.87;1.73;;;8.80;99.90;;;;;;4983617;28;20224;-91
2024/02/11 08:06:13;;;;;;;4.03;2.37;;;9.10;99.90;;;;;;4984055;28;20778;-92
2024/02/11 08:08:39;;;;;;;2.20;1.93;;;9.00;99.90;;;;;;4967951;28;20203;-91
2024/02/11 08:11:05;;;;;;;2.97;2.77;;;8.80;99.90;;;;;;4983631;28;20203;-91
2024/02/11 08:13:32;;;;;;;2.50;1.57;;;8.80;99.90;;;;;;4967760;28;20215;-92
2024/02/11 08:16:07;;;;;;;3.93;2.57;;;9.00;99.90;;;;;;4983022;28;20239;-92
2024/02/11 08:18:32;;;;;;;2.20;2.00;;;8.90;99.90;;;;;;4967455;28;20230;-89
2024/02/11 08:20:58;;;;;;;8.43;3.50;;;9.00;99.90;;;;;;4967508;28;20231;-91
2024/02/11 08:23:24;;;;;;;8.73;4.30;;;9.00;99.90;;;;;;4967610;28;20200;-90
2024/02/11 08:25:51;;;;;;;4.13;2.37;;;8.80;99.90;;;;;;4967854;28;21279;-91
2024/02/11 08:28:17;;;;;;;11.20;2.10;;;8.80;99.90;;;;;;4967631;28;20216;-91
2024/02/11 08:30:43;;;;;;;5.30;4.00;;;9.00;99.90;;;;;;4985608;28;20267;-90
2024/02/11 08:33:09;;;;;;;3.97;2.50;;;8.80;99.90;;;;;;4989935;28;20220;-91
2024/02/11 08:35:36;;;;;;;4.53;3.20;;;9.00;99.90;;;;;;4993154;28;20234;-91
2024/02/11 08:38:03;;;;;;;6.13;2.97;;;8.80;99.90;;;;;;4978832;28;20188;-91
2024/02/11 08:40:30;;;;;;;4.37;3.97;;;9.10;99.90;;;;;;4841036;28;149166;-91
2024/02/11 08:45:27;;;;;;;3.17;2.13;;;9.10;99.90;;;;;;4996980;27;106629;-89
2024/02/11 08:47:52;;;;;;;6.97;3.67;;;8.90;99.90;;;;;;4967764;28;20390;-89
2024/02/11 08:50:18;;;;;;;4.93;3.00;;;8.80;99.90;;;;;;4807740;28;20265;-88
2024/02/11 08:52:44;;;;;;;5.73;3.43;;;8.90;99.90;;;;;;5043497;28;20230;-89
2024/02/11 08:55:11;;;;;;;3.77;3.57;;;9.00;99.90;;;;;;4959409;28;95870;-91
2024/02/11 08:57:37;;;;;;;3.43;3.10;;;8.90;99.90;;;;;;5007731;28;20231;-92
2024/02/11 09:00:08;;;;;;;2.23;2.00;;;9.20;99.90;;;;;;5008265;28;20241;-91
2024/02/11 09:02:33;;;;;;;3.03;2.83;;;8.90;99.90;;;;;;5023141;28;20659;-88
2024/02/11 09:05:00;;;;;;;3.60;2.30;;;8.90;99.90;;;;;;5005353;28;20397;-88
2024/02/11 09:07:25;;;;;;;3.30;2.53;;;9.20;99.90;;;;;;5018245;28;20237;-89
2024/02/11 09:09:51;;;;;;;9.57;2.43;;;9.00;99.90;;;;;;5022776;28;20230;-88
2024/02/11 09:12:17;;;;;;;2.60;2.43;;;9.00;99.90;;;;;;5007791;28;20313;-87
2024/02/11 09:14:43;;;;;;;4.17;3.87;;;9.30;99.90;;;;;;5008323;28;20237;-89
2024/02/11 09:17:10;;;;;;;2.27;2.17;;;9.10;99.90;;;;;;5008846;28;20207;-88
2024/02/11 09:19:36;;;;;;;2.73;2.13;;;9.10;99.90;;;;;;5002526;28;20230;-89
2024/02/11 09:22:05;;;;;;;5.87;5.00;;;9.30;99.90;;;;;;5041306;28;20276;-88
2024/02/11 09:24:34;;;;;;;1.40;1.30;;;9.20;99.90;;;;;;5006385;28;20234;-88
2024/02/11 09:27:00;;;;;;;3.10;1.40;;;9.10;99.90;;;;;;5023214;28;20313;-89
2024/02/11 09:29:26;;;;;;;4.77;3.13;;;9.30;99.90;;;;;;5023892;28;20270;-90
2024/02/11 09:31:52;;;;;;;4.13;3.83;;;9.40;99.90;;;;;;5026308;28;20726;-89
2024/02/11 09:34:21;;;;;;;6.77;3.90;;;9.20;99.90;;;;;;5052395;28;20234;-89
2024/02/11 09:36:47;;;;;;;4.27;3.17;;;9.20;99.90;;;;;;5042874;28;20234;-89
2024/02/11 09:39:13;;;;;;;6.17;3.37;;;9.20;99.90;;;;;;5015631;28;20222;-89
2024/02/11 09:41:39;;;;;;;1.57;1.47;;;9.20;99.90;;;;;;5030246;28;20215;-90
2024/02/11 09:44:07;;;;;;;1.63;1.63;;;9.20;99.90;;;;;;5006594;28;20617;-89
2024/02/11 09:46:36;;;;;;;2.23;1.60;;;9.50;99.90;;;;;;5043790;28;20285;-90
2024/02/11 09:49:08;;;;;;;2.40;2.27;;;9.40;99.90;;;;;;5021263;28;20567;-89
2024/02/11 09:51:34;;;;;;;1.40;1.30;;;9.50;99.90;;;;;;5021271;28;20226;-88
2024/02/11 09:54:02;;;;;;;6.00;4.33;;;9.30;99.90;;;;;;5042309;28;20253;-89
2024/02/11 09:56:28;;;;;;;3.20;2.43;;;9.20;99.90;;;;;;5007902;28;20283;-89
2024/02/11 09:58:56;;;;;;;6.53;4.13;;;9.50;99.90;;;;;;4988930;28;20273;-88
2024/02/11 10:01:22;;;;;;;3.33;2.57;;;9.30;99.90;;;;;;5004918;28;20231;-90
2024/02/11 10:03:54;;;;;;;5.47;3.27;;;9.30;99.90;;;;;;4987620;28;20227;-89
2024/02/11 10:06:33;;;;;;;1.30;1.30;;;9.60;99.90;;;;;;5003900;28;21231;-89
2024/02/11 10:08:59;;;;;;;3.57;3.40;;;9.30;99.90;;;;;;5004926;28;20230;-89
2024/02/11 10:11:26;;;;;;;1.87;1.77;;;9.30;99.90;;;;;;4987617;28;20207;-89
2024/02/11 10:13:57;;;;;;;3.40;3.10;;;9.40;99.90;;;;;;5010660;28;20710;-91
2024/02/11 10:16:23;;;;;;;8.17;3.70;;;9.30;99.90;;;;;;5023410;28;20245;-90
2024/02/11 10:18:50;;;;;;;4.77;4.17;;;9.50;99.90;;;;;;5006487;28;20231;-88
2024/02/11 10:21:16;;;;;;;5.37;2.47;;;9.60;99.90;;;;;;5003842;28;20231;-90
2024/02/11 10:23:44;;;;;;;5.97;2.67;;;9.40;99.90;;;;;;4987154;28;20231;-90
2024/02/11 10:26:12;;;;;;;4.13;2.20;;;9.70;99.90;;;;;;4987988;28;20207;-89
2024/02/11 10:28:39;;;;;;;5.93;2.87;;;9.60;99.90;;;;;;4987380;28;20222;-89
2024/02/11 10:31:06;;;;;;;4.90;3.90;;;9.80;99.90;;;;;;5027712;28;20227;-90
2024/02/11 10:33:32;;;;;;;3.37;2.80;;;9.60;99.90;;;;;;5002493;28;20482;-89
2024/02/11 10:36:03;;;;;;;4.93;3.97;;;9.80;99.90;;;;;;5005057;28;20230;-90
2024/02/11 10:38:30;;;;;;;8.70;5.33;;;9.90;99.90;;;;;;5002679;28;20245;-90
2024/02/11 10:40:58;;;;;;;6.53;3.83;;;10.00;99.90;;;;;;5003787;28;20313;-89
2024/02/11 10:43:26;;;;;;;5.77;5.30;;;9.80;99.90;;;;;;5002079;28;20251;-90
2024/02/11 10:45:52;;;;;;;7.13;3.10;;;9.80;99.90;;;;;;4986370;28;20749;-89
2024/02/11 10:48:19;;;;;;;8.20;5.03;;;9.90;99.90;;;;;;5002426;28;20235;-90
2024/02/11 10:51:07;;;;;;;4.20;3.53;;;9.90;99.90;;;;;;5000982;28;20235;-90
2024/02/11 10:53:36;;;;;;;11.03;5.90;;;10.20;99.90;;;;;;5025042;28;20214;-90
2024/02/11 10:56:09;;;;;;;4.53;4.03;;;10.00;99.90;;;;;;5025388;28;20207;-90
2024/02/11 10:59:02;;;;;;;14.50;5.80;;;9.90;99.90;;;;;;5027731;28;20231;-89
2024/02/11 11:01:29;;;;;;;8.23;5.80;;;10.10;99.90;;;;;;5033739;28;20239;-90
2024/02/11 11:03:56;;;;;;;7.17;3.90;;;10.40;99.90;;;;;;5009437;28;20236;-89
2024/02/11 11:06:24;;;;;;;7.10;4.87;;;10.40;99.90;;;;;;5004162;28;20223;-89
2024/02/11 11:08:51;;;;;;;5.60;5.10;;;10.40;99.90;;;;;;5003214;28;20238;-89
2024/02/11 11:11:25;;;;;;;7.13;6.40;;;10.30;99.90;;;;;;5002435;28;20211;-89
2024/02/11 11:13:53;;;;;;;6.17;5.50;;;10.70;99.90;;;;;;4986043;28;20586;-89
2024/02/11 11:16:27;;;;;;;10.40;5.53;;;10.60;99.90;;;;;;5002606;28;20232;-89
2024/02/11 11:18:52;;;;;;;1.57;1.47;;;10.50;99.90;;;;;;5002707;28;20242;-89
2024/02/11 11:21:20;;;;;;;6.90;1.27;;;10.00;99.90;;;;;;4985909;28;20235;-87
2024/02/11 11:23:49;;;;;;;2.20;2.10;;;9.80;99.90;;;;;;5001588;28;20231;-88
2024/02/11 11:26:20;;;;;;;1.83;1.73;;;9.80;99.90;;;;;;5002046;28;20238;-89
2024/02/11 11:28:46;;;;;;;1.30;0.80;;;9.70;99.90;;;;;;5002947;28;20253;-90
2024/02/11 11:31:13;;;;;;;6.73;1.50;;;10.00;99.90;;;;;;4985959;28;20231;-89
2024/02/11 11:33:39;;;;;;;0.97;0.80;;;9.70;99.90;;;;;;4985865;28;20223;-90
2024/02/11 11:36:05;;;;;;;0.83;0.77;;;9.80;99.90;;;;;;5003029;28;20234;-89
2024/02/11 11:38:32;;;;;;;1.37;1.27;;;9.90;99.90;;;;;;5001981;28;20199;-91
2024/02/11 11:40:58;;;;;;;1.17;0.97;;;9.90;99.90;;;;;;5002963;28;20203;-91
2024/02/11 11:43:24;;;;;;;2.60;1.80;;;10.00;99.90;;;;;;4984595;28;20711;-91
2024/02/11 11:45:57;;;;;;;1.33;1.23;;;10.30;99.90;;;;;;4985452;28;20366;-90
2024/02/11 11:48:25;;;;;;;0.70;0.70;;;10.20;99.90;;;;;;5023214;28;20678;-90
2024/02/11 11:50:58;;;;;;;1.97;1.80;;;10.00;99.90;;;;;;4984633;28;20231;-88
2024/02/11 11:53:25;;;;;;;0.47;0.47;;;10.30;99.90;;;;;;5001764;28;20733;-90
2024/02/11 11:55:52;;;;;;;2.40;1.90;;;10.30;99.90;;;;;;5002098;28;20294;-90
2024/02/11 11:58:25;;;;;;;1.87;1.57;;;10.10;99.90;;;;;;5002175;28;20253;-88
2024/02/11 12:01:04;;;;;;;2.27;1.17;;;10.50;99.90;;;;;;4987139;28;20586;-91
2024/02/11 12:03:31;;;;;;;1.90;1.73;;;10.50;99.90;;;;;;5009004;28;20261;-91
2024/02/11 12:05:57;;;;;;;1.67;1.57;;;10.40;99.90;;;;;;5019436;28;20316;-91
2024/02/11 12:08:25;;;;;;;4.20;2.23;;;10.50;99.90;;;;;;5003730;28;20210;-90
2024/02/11 12:11:06;;;;;;;0.83;0.83;;;10.60;99.90;;;;;;5019981;28;20542;-90
2024/02/11 12:13:37;;;;;;;3.10;2.37;;;10.60;99.90;;;;;;5019516;28;20779;-90
2024/02/11 12:16:13;;;;;;;3.70;1.80;;;10.40;99.90;;;;;;5020881;28;20262;-91
2024/02/11 12:18:40;;;;;;;1.87;1.67;;;10.50;99.90;;;;;;5019249;28;20229;-91
2024/02/11 12:21:10;;;;;;;2.40;1.37;;;10.80;99.90;;;;;;5019767;28;20232;-91
2024/02/11 12:23:36;;;;;;;1.37;1.37;;;11.00;99.90;;;;;;5027580;28;20234;-90
2024/02/11 12:26:04;;;;;;;1.70;1.03;;;10.80;99.90;;;;;;5020046;28;20198;-91
2024/02/11 12:28:37;;;;;;;2.10;1.93;;;10.90;99.90;;;;;;5019786;28;20260;-90
2024/02/11 12:31:13;;;;;;;3.00;1.10;;;10.70;99.90;;;;;;5020121;28;20230;-91
2024/02/11 12:33:41;;;;;;;1.83;1.53;;;10.50;99.90;;;;;;5020821;28;20505;-90
2024/02/11 12:36:07;;;;;;;1.10;1.10;;;10.30;99.90;;;;;;5019713;28;20222;-91
2024/02/11 12:38:34;;;;;;;0.40;0.40;;;10.40;99.90;;;;;;5019362;28;20624;-91
2024/02/11 12:41:00;;;;;;;1.00;1.00;;;10.40;99.90;;;;;;5051222;28;20225;-91
2024/02/11 12:43:27;;;;;;;1.20;1.10;;;10.60;99.90;;;;;;5006701;28;20234;-92
2024/02/11 12:45:54;;;;;;;1.77;1.60;;;10.40;99.90;;;;;;5024041;28;20222;-91
2024/02/11 12:48:19;;;;;;;2.30;1.57;;;10.30;99.90;;;;;;5036111;28;20266;-91
2024/02/11 12:50:46;;;;;;;1.83;1.73;;;10.30;99.90;;;;;;5002976;28;20694;-91
2024/02/11 12:53:11;;;;;;;0.87;0.60;;;10.40;99.90;;;;;;5003886;28;20228;-91
2024/02/11 12:55:40;;;;;;;1.60;1.60;;;10.20;99.90;;;;;;5002389;28;20230;-91
2024/02/11 12:58:06;;;;;;;2.27;1.03;;;10.60;99.90;;;;;;5020819;28;20226;-91